sensor_id;sensor_type;location;lat;lon;timestamp;P1;durP1;ratioP1;P2;durP2;ratioP2
3050;SDS011;1535;51.098;6.414;2023-02-28T00:00:05;20.17;;;18.73;;
3050;SDS011;1535;51.098;6.414;2023-02-28T00:02:35;19.83;;;18.33;;
3050;SDS011;1535;51.098;6.414;2023-02-28T00:05:02;21.20;;;19.03;;
3050;SDS011;1535;51.098;6.414;2023-02-28T00:07:30;20.27;;;18.67;;
3050;SDS011;1535;51.098;6.414;2023-02-28T00:09:57;20.07;;;18.37;;
3050;SDS011;1535;51.098;6.414;2023-02-28T00:12:25;20.77;;;18.97;;
3050;SDS011;1535;51.098;6.414;2023-02-28T00:14:51;20.67;;;19.00;;
3050;SDS011;1535;51.098;6.414;2023-02-28T00:17:20;20.73;;;18.90;;
3050;SDS011;1535;51.098;6.414;2023-02-28T00:19:47;21.07;;;19.23;;
3050;SDS011;1535;51.098;6.414;2023-02-28T00:22:14;20.83;;;19.13;;
3050;SDS011;1535;51.098;6.414;2023-02-28T00:24:41;20.27;;;18.63;;
3050;SDS011;1535;51.098;6.414;2023-02-28T00:27:08;21.23;;;19.70;;
3050;SDS011;1535;51.098;6.414;2023-02-28T00:29:36;20.43;;;18.53;;
3050;SDS011;1535;51.098;6.414;2023-02-28T00:32:03;19.97;;;18.37;;
3050;SDS011;1535;51.098;6.414;2023-02-28T00:34:32;20.77;;;18.97;;
3050;SDS011;1535;51.098;6.414;2023-02-28T00:37:02;22.27;;;19.60;;
3050;SDS011;1535;51.098;6.414;2023-02-28T00:39:33;19.80;;;18.00;;
3050;SDS011;1535;51.098;6.414;2023-02-28T00:42:00;20.50;;;18.80;;
3050;SDS011;1535;51.098;6.414;2023-02-28T00:44:29;19.93;;;18.40;;
3050;SDS011;1535;51.098;6.414;2023-02-28T00:46:56;20.17;;;18.47;;
3050;SDS011;1535;51.098;6.414;2023-02-28T00:49:23;20.70;;;18.60;;
3050;SDS011;1535;51.098;6.414;2023-02-28T00:51:52;18.77;;;17.40;;
3050;SDS011;1535;51.098;6.414;2023-02-28T00:54:20;19.67;;;18.17;;
3050;SDS011;1535;51.098;6.414;2023-02-28T00:56:48;20.80;;;18.83;;
3050;SDS011;1535;51.098;6.414;2023-02-28T00:59:16;18.97;;;17.57;;
3050;SDS011;1535;51.098;6.414;2023-02-28T01:01:44;19.63;;;18.03;;
3050;SDS011;1535;51.098;6.414;2023-02-28T01:04:12;19.60;;;18.17;;
3050;SDS011;1535;51.098;6.414;2023-02-28T01:06:40;20.43;;;18.70;;
3050;SDS011;1535;51.098;6.414;2023-02-28T01:09:09;20.40;;;18.60;;
3050;SDS011;1535;51.098;6.414;2023-02-28T01:11:37;19.97;;;18.47;;
3050;SDS011;1535;51.098;6.414;2023-02-28T01:14:05;20.57;;;18.77;;
3050;SDS011;1535;51.098;6.414;2023-02-28T01:16:32;21.20;;;19.37;;
3050;SDS011;1535;51.098;6.414;2023-02-28T01:18:59;21.00;;;18.80;;
3050;SDS011;1535;51.098;6.414;2023-02-28T01:21:26;20.50;;;18.70;;
3050;SDS011;1535;51.098;6.414;2023-02-28T01:23:55;20.03;;;18.20;;
3050;SDS011;1535;51.098;6.414;2023-02-28T01:26:24;19.37;;;17.97;;
3050;SDS011;1535;51.098;6.414;2023-02-28T01:28:52;20.27;;;18.33;;
3050;SDS011;1535;51.098;6.414;2023-02-28T01:31:21;20.43;;;18.47;;
3050;SDS011;1535;51.098;6.414;2023-02-28T01:33:48;19.53;;;18.03;;
3050;SDS011;1535;51.098;6.414;2023-02-28T01:36:16;18.50;;;17.20;;
3050;SDS011;1535;51.098;6.414;2023-02-28T01:38:45;20.73;;;18.83;;
3050;SDS011;1535;51.098;6.414;2023-02-28T01:41:14;19.07;;;17.50;;
3050;SDS011;1535;51.098;6.414;2023-02-28T01:43:54;19.80;;;18.10;;
3050;SDS011;1535;51.098;6.414;2023-02-28T01:46:23;19.70;;;17.97;;
3050;SDS011;1535;51.098;6.414;2023-02-28T01:48:51;19.73;;;18.17;;
3050;SDS011;1535;51.098;6.414;2023-02-28T01:51:25;19.20;;;17.67;;
3050;SDS011;1535;51.098;6.414;2023-02-28T01:53:55;19.53;;;17.93;;
3050;SDS011;1535;51.098;6.414;2023-02-28T01:56:26;19.67;;;17.97;;
3050;SDS011;1535;51.098;6.414;2023-02-28T01:58:57;19.50;;;18.03;;
3050;SDS011;1535;51.098;6.414;2023-02-28T02:01:25;19.10;;;17.67;;
3050;SDS011;1535;51.098;6.414;2023-02-28T02:03:55;20.83;;;19.20;;
3050;SDS011;1535;51.098;6.414;2023-02-28T02:06:25;20.07;;;18.40;;
3050;SDS011;1535;51.098;6.414;2023-02-28T02:08:55;20.67;;;19.07;;
3050;SDS011;1535;51.098;6.414;2023-02-28T02:11:22;18.67;;;17.27;;
3050;SDS011;1535;51.098;6.414;2023-02-28T02:13:54;19.90;;;18.47;;
3050;SDS011;1535;51.098;6.414;2023-02-28T02:16:40;20.80;;;19.00;;
3050;SDS011;1535;51.098;6.414;2023-02-28T02:19:27;21.43;;;19.07;;
3050;SDS011;1535;51.098;6.414;2023-02-28T02:22:12;19.37;;;17.97;;
3050;SDS011;1535;51.098;6.414;2023-02-28T02:25:03;20.27;;;18.40;;
3050;SDS011;1535;51.098;6.414;2023-02-28T02:33:40;21.63;;;19.50;;
3050;SDS011;1535;51.098;6.414;2023-02-28T02:36:31;20.87;;;19.10;;
3050;SDS011;1535;51.098;6.414;2023-02-28T02:39:02;20.10;;;18.57;;
3050;SDS011;1535;51.098;6.414;2023-02-28T02:41:35;20.83;;;19.00;;
3050;SDS011;1535;51.098;6.414;2023-02-28T02:44:06;20.27;;;18.47;;
3050;SDS011;1535;51.098;6.414;2023-02-28T02:46:41;20.83;;;19.00;;
3050;SDS011;1535;51.098;6.414;2023-02-28T02:49:11;21.27;;;19.50;;
3050;SDS011;1535;51.098;6.414;2023-02-28T02:51:44;19.17;;;17.33;;
3050;SDS011;1535;51.098;6.414;2023-02-28T02:54:13;20.57;;;18.70;;
3050;SDS011;1535;51.098;6.414;2023-02-28T02:56:44;20.23;;;18.23;;
3050;SDS011;1535;51.098;6.414;2023-02-28T02:59:13;21.93;;;18.17;;
3050;SDS011;1535;51.098;6.414;2023-02-28T03:01:46;20.00;;;18.40;;
3050;SDS011;1535;51.098;6.414;2023-02-28T03:04:17;18.67;;;17.30;;
3050;SDS011;1535;51.098;6.414;2023-02-28T03:06:47;19.47;;;18.03;;
3050;SDS011;1535;51.098;6.414;2023-02-28T03:09:19;21.10;;;19.27;;
3050;SDS011;1535;51.098;6.414;2023-02-28T03:11:46;19.70;;;18.13;;
3050;SDS011;1535;51.098;6.414;2023-02-28T03:14:21;20.90;;;19.00;;
3050;SDS011;1535;51.098;6.414;2023-02-28T03:17:06;22.50;;;20.50;;
3050;SDS011;1535;51.098;6.414;2023-02-28T03:19:45;20.90;;;19.03;;
3050;SDS011;1535;51.098;6.414;2023-02-28T03:22:27;22.10;;;19.90;;
3050;SDS011;1535;51.098;6.414;2023-02-28T03:25:05;20.00;;;18.30;;
3050;SDS011;1535;51.098;6.414;2023-02-28T03:27:36;20.63;;;18.63;;
3050;SDS011;1535;51.098;6.414;2023-02-28T03:30:09;20.43;;;18.83;;
3050;SDS011;1535;51.098;6.414;2023-02-28T03:32:40;20.27;;;18.60;;
3050;SDS011;1535;51.098;6.414;2023-02-28T03:35:19;18.80;;;17.37;;
3050;SDS011;1535;51.098;6.414;2023-02-28T03:37:50;19.60;;;18.00;;
3050;SDS011;1535;51.098;6.414;2023-02-28T03:40:21;19.33;;;17.73;;
3050;SDS011;1535;51.098;6.414;2023-02-28T03:42:52;20.03;;;18.33;;
3050;SDS011;1535;51.098;6.414;2023-02-28T03:45:23;20.60;;;18.87;;
3050;SDS011;1535;51.098;6.414;2023-02-28T03:47:54;20.50;;;18.50;;
3050;SDS011;1535;51.098;6.414;2023-02-28T03:50:27;19.77;;;17.97;;
3050;SDS011;1535;51.098;6.414;2023-02-28T03:53:02;18.67;;;17.27;;
3050;SDS011;1535;51.098;6.414;2023-02-28T03:55:34;18.43;;;16.83;;
3050;SDS011;1535;51.098;6.414;2023-02-28T03:58:05;23.23;;;17.20;;
3050;SDS011;1535;51.098;6.414;2023-02-28T04:00:39;20.67;;;18.87;;
3050;SDS011;1535;51.098;6.414;2023-02-28T04:03:09;20.13;;;18.27;;
3050;SDS011;1535;51.098;6.414;2023-02-28T04:05:44;19.47;;;17.97;;
3050;SDS011;1535;51.098;6.414;2023-02-28T04:08:16;18.87;;;17.37;;
3050;SDS011;1535;51.098;6.414;2023-02-28T04:10:43;19.13;;;17.50;;
3050;SDS011;1535;51.098;6.414;2023-02-28T04:13:14;19.87;;;18.20;;
3050;SDS011;1535;51.098;6.414;2023-02-28T04:15:41;19.80;;;17.90;;
3050;SDS011;1535;51.098;6.414;2023-02-28T04:18:08;18.30;;;16.90;;
3050;SDS011;1535;51.098;6.414;2023-02-28T04:20:35;17.87;;;16.37;;
3050;SDS011;1535;51.098;6.414;2023-02-28T04:23:02;18.70;;;16.90;;
3050;SDS011;1535;51.098;6.414;2023-02-28T04:25:30;18.30;;;16.67;;
3050;SDS011;1535;51.098;6.414;2023-02-28T04:27:57;17.57;;;16.13;;
3050;SDS011;1535;51.098;6.414;2023-02-28T04:30:23;17.57;;;16.33;;
3050;SDS011;1535;51.098;6.414;2023-02-28T04:32:50;17.97;;;16.60;;
3050;SDS011;1535;51.098;6.414;2023-02-28T04:35:17;18.13;;;16.80;;
3050;SDS011;1535;51.098;6.414;2023-02-28T04:37:44;16.63;;;15.43;;
3050;SDS011;1535;51.098;6.414;2023-02-28T04:40:11;20.20;;;15.87;;
3050;SDS011;1535;51.098;6.414;2023-02-28T04:42:39;17.47;;;15.97;;
3050;SDS011;1535;51.098;6.414;2023-02-28T04:45:09;16.87;;;15.50;;
3050;SDS011;1535;51.098;6.414;2023-02-28T04:47:36;17.10;;;15.80;;
3050;SDS011;1535;51.098;6.414;2023-02-28T04:50:03;18.00;;;16.40;;
3050;SDS011;1535;51.098;6.414;2023-02-28T04:52:30;16.57;;;15.30;;
3050;SDS011;1535;51.098;6.414;2023-02-28T04:54:57;17.23;;;15.83;;
3050;SDS011;1535;51.098;6.414;2023-02-28T04:57:23;17.63;;;16.00;;
3050;SDS011;1535;51.098;6.414;2023-02-28T04:59:52;17.60;;;15.90;;
3050;SDS011;1535;51.098;6.414;2023-02-28T05:02:18;17.10;;;15.80;;
3050;SDS011;1535;51.098;6.414;2023-02-28T05:04:46;16.97;;;15.60;;
3050;SDS011;1535;51.098;6.414;2023-02-28T05:07:13;17.70;;;16.30;;
3050;SDS011;1535;51.098;6.414;2023-02-28T05:09:40;16.83;;;15.53;;
3050;SDS011;1535;51.098;6.414;2023-02-28T05:12:08;16.23;;;15.23;;
3050;SDS011;1535;51.098;6.414;2023-02-28T05:14:35;18.40;;;16.70;;
3050;SDS011;1535;51.098;6.414;2023-02-28T05:17:04;17.77;;;16.37;;
3050;SDS011;1535;51.098;6.414;2023-02-28T05:19:31;18.10;;;16.80;;
3050;SDS011;1535;51.098;6.414;2023-02-28T05:21:58;17.50;;;16.30;;
3050;SDS011;1535;51.098;6.414;2023-02-28T05:24:25;17.30;;;15.93;;
3050;SDS011;1535;51.098;6.414;2023-02-28T05:26:52;18.53;;;16.93;;
3050;SDS011;1535;51.098;6.414;2023-02-28T05:29:20;17.27;;;16.00;;
3050;SDS011;1535;51.098;6.414;2023-02-28T05:31:47;18.50;;;16.87;;
3050;SDS011;1535;51.098;6.414;2023-02-28T05:34:17;19.13;;;17.60;;
3050;SDS011;1535;51.098;6.414;2023-02-28T05:36:43;19.87;;;18.13;;
3050;SDS011;1535;51.098;6.414;2023-02-28T05:39:10;18.83;;;17.43;;
3050;SDS011;1535;51.098;6.414;2023-02-28T05:41:39;17.77;;;16.47;;
3050;SDS011;1535;51.098;6.414;2023-02-28T05:44:08;18.70;;;17.10;;
3050;SDS011;1535;51.098;6.414;2023-02-28T05:46:35;19.23;;;17.43;;
3050;SDS011;1535;51.098;6.414;2023-02-28T05:49:02;18.97;;;17.40;;
3050;SDS011;1535;51.098;6.414;2023-02-28T05:51:30;18.60;;;17.10;;
3050;SDS011;1535;51.098;6.414;2023-02-28T05:54:00;19.00;;;17.60;;
3050;SDS011;1535;51.098;6.414;2023-02-28T05:56:27;19.07;;;17.60;;
3050;SDS011;1535;51.098;6.414;2023-02-28T05:58:55;18.50;;;16.90;;
3050;SDS011;1535;51.098;6.414;2023-02-28T06:01:23;19.33;;;17.80;;
3050;SDS011;1535;51.098;6.414;2023-02-28T06:03:57;19.80;;;18.47;;
3050;SDS011;1535;51.098;6.414;2023-02-28T06:06:25;18.80;;;17.30;;
3050;SDS011;1535;51.098;6.414;2023-02-28T06:08:54;18.53;;;17.10;;
3050;SDS011;1535;51.098;6.414;2023-02-28T06:11:21;18.00;;;16.70;;
3050;SDS011;1535;51.098;6.414;2023-02-28T06:13:52;18.77;;;17.27;;
3050;SDS011;1535;51.098;6.414;2023-02-28T06:16:20;19.83;;;18.43;;
3050;SDS011;1535;51.098;6.414;2023-02-28T06:18:47;19.00;;;17.60;;
3050;SDS011;1535;51.098;6.414;2023-02-28T06:21:14;18.03;;;16.40;;
3050;SDS011;1535;51.098;6.414;2023-02-28T06:23:41;17.87;;;16.60;;
3050;SDS011;1535;51.098;6.414;2023-02-28T06:26:10;20.63;;;16.53;;
3050;SDS011;1535;51.098;6.414;2023-02-28T06:28:37;20.43;;;17.37;;
3050;SDS011;1535;51.098;6.414;2023-02-28T06:31:07;20.17;;;18.37;;
3050;SDS011;1535;51.098;6.414;2023-02-28T06:33:35;18.00;;;16.70;;
3050;SDS011;1535;51.098;6.414;2023-02-28T06:36:03;16.93;;;15.73;;
3050;SDS011;1535;51.098;6.414;2023-02-28T06:38:30;18.03;;;16.30;;
3050;SDS011;1535;51.098;6.414;2023-02-28T06:40:57;18.13;;;16.67;;
3050;SDS011;1535;51.098;6.414;2023-02-28T06:43:27;18.40;;;17.00;;
3050;SDS011;1535;51.098;6.414;2023-02-28T06:45:55;17.77;;;16.57;;
3050;SDS011;1535;51.098;6.414;2023-02-28T06:48:22;18.60;;;17.20;;
3050;SDS011;1535;51.098;6.414;2023-02-28T06:50:50;18.03;;;16.73;;
3050;SDS011;1535;51.098;6.414;2023-02-28T06:53:17;18.10;;;16.70;;
3050;SDS011;1535;51.098;6.414;2023-02-28T06:55:44;17.87;;;16.47;;
3050;SDS011;1535;51.098;6.414;2023-02-28T06:58:10;19.23;;;17.37;;
3050;SDS011;1535;51.098;6.414;2023-02-28T07:00:45;17.90;;;16.80;;
3050;SDS011;1535;51.098;6.414;2023-02-28T07:03:12;17.73;;;16.20;;
3050;SDS011;1535;51.098;6.414;2023-02-28T07:05:40;19.20;;;17.50;;
3050;SDS011;1535;51.098;6.414;2023-02-28T07:08:08;18.70;;;17.30;;
3050;SDS011;1535;51.098;6.414;2023-02-28T07:10:36;19.43;;;17.93;;
3050;SDS011;1535;51.098;6.414;2023-02-28T07:13:04;18.63;;;17.27;;
3050;SDS011;1535;51.098;6.414;2023-02-28T07:15:32;18.70;;;17.30;;
3050;SDS011;1535;51.098;6.414;2023-02-28T07:18:00;18.37;;;17.00;;
3050;SDS011;1535;51.098;6.414;2023-02-28T07:20:27;17.30;;;16.10;;
3050;SDS011;1535;51.098;6.414;2023-02-28T07:22:54;18.60;;;17.20;;
3050;SDS011;1535;51.098;6.414;2023-02-28T07:25:22;18.30;;;16.90;;
3050;SDS011;1535;51.098;6.414;2023-02-28T07:27:50;20.83;;;19.30;;
3050;SDS011;1535;51.098;6.414;2023-02-28T07:30:17;18.77;;;17.37;;
3050;SDS011;1535;51.098;6.414;2023-02-28T07:32:44;23.70;;;21.13;;
3050;SDS011;1535;51.098;6.414;2023-02-28T07:35:13;24.07;;;21.80;;
3050;SDS011;1535;51.098;6.414;2023-02-28T07:37:41;25.00;;;22.50;;
3050;SDS011;1535;51.098;6.414;2023-02-28T07:40:10;32.37;;;28.83;;
3050;SDS011;1535;51.098;6.414;2023-02-28T07:42:38;23.87;;;21.67;;
3050;SDS011;1535;51.098;6.414;2023-02-28T07:45:05;22.03;;;19.90;;
3050;SDS011;1535;51.098;6.414;2023-02-28T07:47:33;21.43;;;19.50;;
3050;SDS011;1535;51.098;6.414;2023-02-28T07:50:00;19.53;;;18.13;;
3050;SDS011;1535;51.098;6.414;2023-02-28T07:52:28;21.87;;;19.80;;
3050;SDS011;1535;51.098;6.414;2023-02-28T07:54:55;22.57;;;20.67;;
3050;SDS011;1535;51.098;6.414;2023-02-28T07:57:22;20.80;;;19.13;;
3050;SDS011;1535;51.098;6.414;2023-02-28T07:59:50;22.30;;;20.50;;
3050;SDS011;1535;51.098;6.414;2023-02-28T08:02:17;22.47;;;20.57;;
3050;SDS011;1535;51.098;6.414;2023-02-28T08:04:45;21.73;;;19.83;;
3050;SDS011;1535;51.098;6.414;2023-02-28T08:07:12;22.57;;;20.77;;
3050;SDS011;1535;51.098;6.414;2023-02-28T08:09:41;22.07;;;20.00;;
3050;SDS011;1535;51.098;6.414;2023-02-28T08:12:08;22.10;;;20.40;;
3050;SDS011;1535;51.098;6.414;2023-02-28T08:14:37;20.20;;;18.70;;
3050;SDS011;1535;51.098;6.414;2023-02-28T08:17:04;21.90;;;19.67;;
3050;SDS011;1535;51.098;6.414;2023-02-28T08:19:31;20.10;;;18.70;;
3050;SDS011;1535;51.098;6.414;2023-02-28T08:21:58;20.07;;;18.77;;
3050;SDS011;1535;51.098;6.414;2023-02-28T08:24:24;21.57;;;19.90;;
3050;SDS011;1535;51.098;6.414;2023-02-28T08:26:53;21.40;;;19.90;;
3050;SDS011;1535;51.098;6.414;2023-02-28T08:29:21;20.27;;;18.87;;
3050;SDS011;1535;51.098;6.414;2023-02-28T08:31:48;21.43;;;19.90;;
3050;SDS011;1535;51.098;6.414;2023-02-28T08:34:15;20.27;;;18.77;;
3050;SDS011;1535;51.098;6.414;2023-02-28T08:36:43;21.33;;;19.93;;
3050;SDS011;1535;51.098;6.414;2023-02-28T08:39:10;21.97;;;20.27;;
3050;SDS011;1535;51.098;6.414;2023-02-28T08:41:38;21.27;;;19.87;;
3050;SDS011;1535;51.098;6.414;2023-02-28T08:44:06;21.37;;;19.93;;
3050;SDS011;1535;51.098;6.414;2023-02-28T08:46:33;21.50;;;20.10;;
3050;SDS011;1535;51.098;6.414;2023-02-28T08:48:59;21.60;;;20.10;;
3050;SDS011;1535;51.098;6.414;2023-02-28T08:51:27;21.40;;;19.83;;
3050;SDS011;1535;51.098;6.414;2023-02-28T08:53:55;21.40;;;19.90;;
3050;SDS011;1535;51.098;6.414;2023-02-28T08:56:25;21.50;;;19.93;;
3050;SDS011;1535;51.098;6.414;2023-02-28T08:58:54;21.33;;;20.03;;
3050;SDS011;1535;51.098;6.414;2023-02-28T09:01:24;21.10;;;19.90;;
3050;SDS011;1535;51.098;6.414;2023-02-28T09:03:53;21.60;;;20.30;;
3050;SDS011;1535;51.098;6.414;2023-02-28T09:06:21;20.37;;;19.27;;
3050;SDS011;1535;51.098;6.414;2023-02-28T09:08:49;21.80;;;20.40;;
3050;SDS011;1535;51.098;6.414;2023-02-28T09:11:16;21.87;;;20.47;;
3050;SDS011;1535;51.098;6.414;2023-02-28T09:13:44;21.00;;;19.90;;
3050;SDS011;1535;51.098;6.414;2023-02-28T09:16:12;21.13;;;19.93;;
3050;SDS011;1535;51.098;6.414;2023-02-28T09:18:42;20.23;;;19.23;;
3050;SDS011;1535;51.098;6.414;2023-02-28T09:21:10;20.80;;;19.70;;
3050;SDS011;1535;51.098;6.414;2023-02-28T09:23:39;20.50;;;19.30;;
3050;SDS011;1535;51.098;6.414;2023-02-28T09:26:07;20.53;;;19.40;;
3050;SDS011;1535;51.098;6.414;2023-02-28T09:28:34;20.43;;;19.20;;
3050;SDS011;1535;51.098;6.414;2023-02-28T09:31:01;19.80;;;18.70;;
3050;SDS011;1535;51.098;6.414;2023-02-28T09:33:29;20.90;;;19.73;;
3050;SDS011;1535;51.098;6.414;2023-02-28T09:36:02;20.20;;;18.60;;
3050;SDS011;1535;51.098;6.414;2023-02-28T09:38:29;19.77;;;18.77;;
3050;SDS011;1535;51.098;6.414;2023-02-28T09:40:56;19.27;;;18.10;;
3050;SDS011;1535;51.098;6.414;2023-02-28T09:43:26;19.77;;;18.50;;
3050;SDS011;1535;51.098;6.414;2023-02-28T09:45:56;19.77;;;18.60;;
3050;SDS011;1535;51.098;6.414;2023-02-28T09:48:28;19.13;;;18.13;;
3050;SDS011;1535;51.098;6.414;2023-02-28T09:51:02;19.20;;;18.20;;
3050;SDS011;1535;51.098;6.414;2023-02-28T09:53:32;19.90;;;18.90;;
3050;SDS011;1535;51.098;6.414;2023-02-28T09:56:04;19.43;;;18.33;;
3050;SDS011;1535;51.098;6.414;2023-02-28T09:58:36;20.30;;;19.20;;
3050;SDS011;1535;51.098;6.414;2023-02-28T10:01:09;19.97;;;18.87;;
3050;SDS011;1535;51.098;6.414;2023-02-28T10:03:46;19.97;;;18.77;;
3050;SDS011;1535;51.098;6.414;2023-02-28T10:06:18;19.70;;;18.50;;
3050;SDS011;1535;51.098;6.414;2023-02-28T10:08:49;20.10;;;19.00;;
3050;SDS011;1535;51.098;6.414;2023-02-28T10:11:22;19.70;;;18.60;;
3050;SDS011;1535;51.098;6.414;2023-02-28T10:13:52;19.67;;;18.57;;
3050;SDS011;1535;51.098;6.414;2023-02-28T10:16:27;21.50;;;19.63;;
3050;SDS011;1535;51.098;6.414;2023-02-28T10:19:01;20.90;;;19.23;;
3050;SDS011;1535;51.098;6.414;2023-02-28T10:21:33;21.97;;;20.20;;
3050;SDS011;1535;51.098;6.414;2023-02-28T10:24:03;20.80;;;19.50;;
3050;SDS011;1535;51.098;6.414;2023-02-28T10:26:36;20.87;;;19.67;;
3050;SDS011;1535;51.098;6.414;2023-02-28T10:29:03;20.20;;;19.00;;
3050;SDS011;1535;51.098;6.414;2023-02-28T10:31:31;21.03;;;19.93;;
3050;SDS011;1535;51.098;6.414;2023-02-28T10:33:57;20.70;;;19.60;;
3050;SDS011;1535;51.098;6.414;2023-02-28T10:36:24;20.50;;;19.20;;
3050;SDS011;1535;51.098;6.414;2023-02-28T10:38:53;20.23;;;19.03;;
3050;SDS011;1535;51.098;6.414;2023-02-28T10:41:26;20.80;;;19.57;;
3050;SDS011;1535;51.098;6.414;2023-02-28T10:44:13;20.47;;;19.23;;
3050;SDS011;1535;51.098;6.414;2023-02-28T10:46:43;20.47;;;19.27;;
3050;SDS011;1535;51.098;6.414;2023-02-28T10:49:12;21.10;;;19.90;;
3050;SDS011;1535;51.098;6.414;2023-02-28T10:51:43;21.77;;;20.47;;
3050;SDS011;1535;51.098;6.414;2023-02-28T10:54:16;20.53;;;19.33;;
3050;SDS011;1535;51.098;6.414;2023-02-28T10:56:46;22.30;;;20.90;;
3050;SDS011;1535;51.098;6.414;2023-02-28T10:59:33;21.83;;;20.07;;
3050;SDS011;1535;51.098;6.414;2023-02-28T11:02:01;21.40;;;20.10;;
3050;SDS011;1535;51.098;6.414;2023-02-28T11:04:32;21.10;;;19.80;;
3050;SDS011;1535;51.098;6.414;2023-02-28T11:07:03;21.37;;;19.97;;
3050;SDS011;1535;51.098;6.414;2023-02-28T11:09:33;20.40;;;19.20;;
3050;SDS011;1535;51.098;6.414;2023-02-28T11:14:47;20.40;;;19.20;;
3050;SDS011;1535;51.098;6.414;2023-02-28T11:17:18;20.30;;;19.20;;
3050;SDS011;1535;51.098;6.414;2023-02-28T11:19:49;20.97;;;19.77;;
3050;SDS011;1535;51.098;6.414;2023-02-28T11:22:18;20.80;;;19.40;;
3050;SDS011;1535;51.098;6.414;2023-02-28T11:24:50;19.43;;;18.43;;
3050;SDS011;1535;51.098;6.414;2023-02-28T11:27:45;19.67;;;18.60;;
3050;SDS011;1535;51.098;6.414;2023-02-28T11:30:24;19.73;;;18.63;;
3050;SDS011;1535;51.098;6.414;2023-02-28T11:32:53;18.97;;;17.97;;
3050;SDS011;1535;51.098;6.414;2023-02-28T11:35:23;20.23;;;18.93;;
3050;SDS011;1535;51.098;6.414;2023-02-28T11:37:53;20.20;;;19.10;;
3050;SDS011;1535;51.098;6.414;2023-02-28T11:40:23;20.50;;;19.20;;
3050;SDS011;1535;51.098;6.414;2023-02-28T11:43:06;20.07;;;18.97;;
3050;SDS011;1535;51.098;6.414;2023-02-28T11:45:49;18.73;;;17.77;;
3050;SDS011;1535;51.098;6.414;2023-02-28T11:48:27;20.37;;;19.17;;
3050;SDS011;1535;51.098;6.414;2023-02-28T11:51:10;21.20;;;20.00;;
3050;SDS011;1535;51.098;6.414;2023-02-28T11:53:48;21.60;;;20.30;;
3050;SDS011;1535;51.098;6.414;2023-02-28T11:56:28;21.30;;;20.10;;
3050;SDS011;1535;51.098;6.414;2023-02-28T11:59:02;20.73;;;19.63;;
3050;SDS011;1535;51.098;6.414;2023-02-28T12:02:05;20.63;;;19.30;;
3050;SDS011;1535;51.098;6.414;2023-02-28T12:04:47;20.73;;;19.63;;
3050;SDS011;1535;51.098;6.414;2023-02-28T12:07:38;20.30;;;19.30;;
3050;SDS011;1535;51.098;6.414;2023-02-28T12:10:14;21.27;;;20.07;;
3050;SDS011;1535;51.098;6.414;2023-02-28T12:12:50;21.57;;;19.73;;
3050;SDS011;1535;51.098;6.414;2023-02-28T12:15:29;20.77;;;19.67;;
3050;SDS011;1535;51.098;6.414;2023-02-28T12:18:20;20.70;;;19.60;;
3050;SDS011;1535;51.098;6.414;2023-02-28T12:20:57;20.90;;;19.73;;
3050;SDS011;1535;51.098;6.414;2023-02-28T12:23:50;21.10;;;19.90;;
3050;SDS011;1535;51.098;6.414;2023-02-28T12:26:28;20.70;;;19.50;;
3050;SDS011;1535;51.098;6.414;2023-02-28T12:29:04;21.07;;;19.87;;
3050;SDS011;1535;51.098;6.414;2023-02-28T12:31:41;21.60;;;20.40;;
3050;SDS011;1535;51.098;6.414;2023-02-28T12:34:15;21.00;;;19.80;;
3050;SDS011;1535;51.098;6.414;2023-02-28T12:36:45;20.80;;;19.60;;
3050;SDS011;1535;51.098;6.414;2023-02-28T12:39:15;21.00;;;19.60;;
3050;SDS011;1535;51.098;6.414;2023-02-28T12:41:47;21.10;;;19.90;;
3050;SDS011;1535;51.098;6.414;2023-02-28T12:44:20;20.83;;;19.63;;
3050;SDS011;1535;51.098;6.414;2023-02-28T12:46:53;21.83;;;20.50;;
3050;SDS011;1535;51.098;6.414;2023-02-28T12:49:25;21.27;;;19.90;;
3050;SDS011;1535;51.098;6.414;2023-02-28T12:51:56;20.80;;;19.70;;
3050;SDS011;1535;51.098;6.414;2023-02-28T12:54:26;21.77;;;20.43;;
3050;SDS011;1535;51.098;6.414;2023-02-28T12:56:59;20.40;;;19.10;;
3050;SDS011;1535;51.098;6.414;2023-02-28T12:59:34;20.33;;;19.23;;
3050;SDS011;1535;51.098;6.414;2023-02-28T13:02:18;20.90;;;19.77;;
3050;SDS011;1535;51.098;6.414;2023-02-28T13:05:22;21.50;;;20.10;;
3050;SDS011;1535;51.098;6.414;2023-02-28T13:11:01;21.43;;;20.27;;
3050;SDS011;1535;51.098;6.414;2023-02-28T13:13:29;20.10;;;18.87;;
3050;SDS011;1535;51.098;6.414;2023-02-28T13:15:59;22.03;;;20.73;;
3050;SDS011;1535;51.098;6.414;2023-02-28T13:18:35;21.97;;;20.67;;
3050;SDS011;1535;51.098;6.414;2023-02-28T13:21:04;21.37;;;20.17;;
3050;SDS011;1535;51.098;6.414;2023-02-28T13:23:37;20.90;;;19.60;;
3050;SDS011;1535;51.098;6.414;2023-02-28T13:26:07;22.43;;;20.93;;
3050;SDS011;1535;51.098;6.414;2023-02-28T13:38:16;21.20;;;19.90;;
3050;SDS011;1535;51.098;6.414;2023-02-28T13:44:15;21.43;;;20.13;;
3050;SDS011;1535;51.098;6.414;2023-02-28T13:49:48;20.90;;;19.77;;
3050;SDS011;1535;51.098;6.414;2023-02-28T13:52:19;21.43;;;20.33;;
3050;SDS011;1535;51.098;6.414;2023-02-28T13:54:53;21.17;;;20.07;;
3050;SDS011;1535;51.098;6.414;2023-02-28T13:57:54;22.30;;;20.77;;
3050;SDS011;1535;51.098;6.414;2023-02-28T14:00:34;21.63;;;20.33;;
3050;SDS011;1535;51.098;6.414;2023-02-28T14:03:13;21.40;;;20.03;;
3050;SDS011;1535;51.098;6.414;2023-02-28T14:05:52;21.33;;;20.07;;
3050;SDS011;1535;51.098;6.414;2023-02-28T14:08:37;20.77;;;19.67;;
3050;SDS011;1535;51.098;6.414;2023-02-28T14:11:23;21.20;;;19.90;;
3050;SDS011;1535;51.098;6.414;2023-02-28T14:13:52;21.47;;;20.27;;
3050;SDS011;1535;51.098;6.414;2023-02-28T14:16:20;20.70;;;19.60;;
3050;SDS011;1535;51.098;6.414;2023-02-28T14:18:49;20.80;;;19.60;;
3050;SDS011;1535;51.098;6.414;2023-02-28T14:21:22;20.33;;;19.23;;
3050;SDS011;1535;51.098;6.414;2023-02-28T14:24:02;21.10;;;19.87;;
3050;SDS011;1535;51.098;6.414;2023-02-28T14:26:49;29.63;;;20.40;;
3050;SDS011;1535;51.098;6.414;2023-02-28T14:29:40;21.30;;;20.10;;
3050;SDS011;1535;51.098;6.414;2023-02-28T14:32:24;21.93;;;20.80;;
3050;SDS011;1535;51.098;6.414;2023-02-28T14:34:58;20.80;;;19.60;;
3050;SDS011;1535;51.098;6.414;2023-02-28T14:37:38;19.73;;;18.73;;
3050;SDS011;1535;51.098;6.414;2023-02-28T14:40:12;20.87;;;19.67;;
3050;SDS011;1535;51.098;6.414;2023-02-28T14:42:45;20.90;;;19.70;;
3050;SDS011;1535;51.098;6.414;2023-02-28T14:45:17;21.77;;;19.97;;
3050;SDS011;1535;51.098;6.414;2023-02-28T14:47:45;23.57;;;21.23;;
3050;SDS011;1535;51.098;6.414;2023-02-28T14:50:17;20.63;;;19.33;;
3050;SDS011;1535;51.098;6.414;2023-02-28T14:52:46;21.33;;;20.03;;
3050;SDS011;1535;51.098;6.414;2023-02-28T14:55:16;22.00;;;20.47;;
3050;SDS011;1535;51.098;6.414;2023-02-28T14:57:50;22.53;;;20.83;;
3050;SDS011;1535;51.098;6.414;2023-02-28T15:00:21;21.60;;;20.20;;
3050;SDS011;1535;51.098;6.414;2023-02-28T15:02:50;22.10;;;20.53;;
3050;SDS011;1535;51.098;6.414;2023-02-28T15:05:23;21.43;;;20.23;;
3050;SDS011;1535;51.098;6.414;2023-02-28T15:08:00;22.37;;;20.97;;
3050;SDS011;1535;51.098;6.414;2023-02-28T15:10:30;21.03;;;19.87;;
3050;SDS011;1535;51.098;6.414;2023-02-28T15:12:58;23.67;;;21.80;;
3050;SDS011;1535;51.098;6.414;2023-02-28T15:15:27;21.80;;;19.73;;
3050;SDS011;1535;51.098;6.414;2023-02-28T15:18:07;21.00;;;19.80;;
3050;SDS011;1535;51.098;6.414;2023-02-28T15:20:42;21.00;;;19.70;;
3050;SDS011;1535;51.098;6.414;2023-02-28T15:23:10;20.90;;;19.53;;
3050;SDS011;1535;51.098;6.414;2023-02-28T15:25:39;21.20;;;19.77;;
3050;SDS011;1535;51.098;6.414;2023-02-28T15:28:09;20.47;;;19.17;;
3050;SDS011;1535;51.098;6.414;2023-02-28T15:30:49;20.93;;;19.70;;
3050;SDS011;1535;51.098;6.414;2023-02-28T15:33:19;22.70;;;21.30;;
3050;SDS011;1535;51.098;6.414;2023-02-28T15:35:47;22.57;;;21.27;;
3050;SDS011;1535;51.098;6.414;2023-02-28T15:38:15;21.77;;;20.67;;